Time;durP1;ratioP1;P1;durP2;ratioP2;P2;SDS_P1;SDS_P2;PMS_P1;PMS_P2;Temp;Humidity;BMP_temperature;BMP_pressure;BME280_temperature;BME280_humidity;BME280_pressure;Samples;Min_cycle;Max_cycle;Signal;HPM_P1;HPM_P2
2022/08/25 00:04:52;;;;;;;9.88;9.57;;;19.00;99.90;;;;;;5111046;27;20208;-81
2022/08/25 00:20:51;;;;;;;9.52;9.23;;;18.80;99.90;;;;;;5112625;27;20223;-81
2022/08/25 00:23:41;;;;;;;9.80;9.50;;;18.70;99.90;;;;;;5146296;27;20270;-81
2022/08/25 00:26:42;;;;;;;9.85;9.55;;;18.70;99.90;;;;;;5144262;27;20227;-81
2022/08/25 00:29:32;;;;;;;9.90;9.60;;;18.70;99.90;;;;;;5141557;27;20247;-82
2022/08/25 00:32:40;;;;;;;10.15;9.85;;;18.70;99.90;;;;;;5141144;27;20228;-82
2022/08/25 00:35:47;;;;;;;9.50;9.20;;;18.70;99.90;;;;;;5142137;27;20281;-81
2022/08/25 00:52:10;;;;;;;9.82;9.52;;;18.50;99.90;;;;;;5157326;27;20216;-80
2022/08/25 00:58:23;;;;;;;9.90;9.60;;;18.40;99.90;;;;;;5144981;27;20231;-81
2022/08/25 01:05:53;;;;;;;;;;;;;;;;;;;;;
2022/08/25 01:12:12;;;;;;;9.90;9.60;;;18.30;99.90;;;;;;5115619;27;20224;-81
2022/08/25 01:25:49;;;;;;;10.10;9.80;;;18.10;99.90;;;;;;5034263;28;20221;-81
2022/08/25 01:54:39;;;;;;;9.90;9.60;;;17.90;99.90;;;;;;4666606;27;15100141;-82
2022/08/25 02:01:35;;;;;;;;;;;;;;;;;;;;;
2022/08/25 02:16:11;;;;;;;9.93;9.63;;;17.50;99.90;;;;;;5176236;27;20227;-80
2022/08/25 02:26:27;;;;;;;9.88;9.57;;;17.40;99.90;;;;;;5137165;27;20219;-81
2022/08/25 02:36:19;;;;;;;9.82;9.52;;;17.40;99.90;;;;;;5179311;27;20230;-81
2022/08/25 02:39:28;;;;;;;10.10;9.80;;;17.30;99.90;;;;;;5179219;27;20314;-81
2022/08/25 02:46:15;;;;;;;9.88;9.57;;;17.20;99.90;;;;;;5176395;27;20282;-81
2022/08/25 03:17:08;;;;;;;9.55;9.25;;;17.10;99.90;;;;;;5136656;27;20247;-81
2022/08/25 03:32:02;;;;;;;10.13;9.82;;;17.10;99.90;;;;;;5027955;28;20227;-81
2022/08/25 03:45:29;;;;;;;9.55;9.25;;;16.90;99.90;;;;;;4961035;28;20221;-81
2022/08/25 04:33:13;;;;;;;;;;;;;;;;;;;;;
2022/08/25 04:40:33;;;;;;;10.13;9.82;;;17.10;99.90;;;;;;5035953;28;20298;-84
2022/08/25 04:47:36;;;;;;;10.15;9.85;;;17.10;99.90;;;;;;5076657;28;20233;-84
2022/08/25 05:11:49;;;;;;;10.73;10.43;;;17.10;99.90;;;;;;5117730;22;20225;-78
2022/08/25 05:14:20;;;;;;;10.80;10.50;;;17.20;99.90;;;;;;5100005;28;20264;-78
2022/08/25 05:16:48;;;;;;;10.52;10.23;;;17.30;99.90;;;;;;5099986;28;20283;-78
2022/08/25 05:19:16;;;;;;;10.85;10.55;;;17.30;99.90;;;;;;5100046;28;20272;-78
2022/08/25 05:21:43;;;;;;;10.95;10.65;;;17.40;99.90;;;;;;5083438;28;20226;-78
2022/08/25 05:24:11;;;;;;;10.50;10.20;;;17.50;99.90;;;;;;5080410;28;20245;-78
2022/08/25 05:26:40;;;;;;;10.70;10.40;;;17.50;99.90;;;;;;5080451;28;20288;-78
2022/08/25 05:29:09;;;;;;;10.50;10.20;;;17.60;99.90;;;;;;5080204;28;20234;-78
2022/08/25 05:31:38;;;;;;;10.50;10.20;;;17.70;99.90;;;;;;5080658;28;20333;-79
2022/08/25 05:34:08;;;;;;;10.32;10.02;;;17.70;99.90;;;;;;5079827;28;20237;-80
2022/08/25 05:36:37;;;;;;;10.50;10.20;;;17.80;99.90;;;;;;5079921;28;20238;-78
2022/08/25 05:39:10;;;;;;;10.27;9.98;;;17.90;99.90;;;;;;5080459;28;20232;-78
2022/08/25 05:41:38;;;;;;;10.20;9.90;;;18.00;99.90;;;;;;5080735;28;20257;-78
2022/08/25 05:44:06;;;;;;;10.35;10.05;;;18.10;99.90;;;;;;5080170;28;20234;-78
2022/08/25 05:46:38;;;;;;;10.13;9.82;;;18.20;99.90;;;;;;5079969;28;20226;-79
2022/08/25 05:49:06;;;;;;;10.30;10.00;;;18.30;99.90;;;;;;5080564;28;20261;-79
2022/08/25 05:51:34;;;;;;;10.30;10.00;;;18.40;99.90;;;;;;5080154;28;20261;-79
2022/08/25 05:54:06;;;;;;;10.18;9.88;;;18.40;99.90;;;;;;5079633;28;20223;-79
2022/08/25 05:56:34;;;;;;;10.68;10.38;;;18.40;99.90;;;;;;5079267;28;20268;-78
2022/08/25 05:59:02;;;;;;;10.50;10.20;;;18.40;99.90;;;;;;5080276;28;20297;-83
2022/08/25 06:04:19;;;;;;;10.60;10.30;;;18.50;99.90;;;;;;5073854;28;20437;-77
2022/08/25 06:06:47;;;;;;;10.60;10.30;;;18.60;99.90;;;;;;5074210;28;20309;-76
2022/08/25 06:09:15;;;;;;;10.50;10.20;;;18.70;99.90;;;;;;5074639;28;20245;-75
2022/08/25 06:11:42;;;;;;;10.57;10.27;;;18.90;99.90;;;;;;5077625;28;20566;-79
2022/08/25 06:14:11;;;;;;;10.50;10.20;;;19.00;99.90;;;;;;5076232;28;20230;-77
2022/08/25 06:16:39;;;;;;;10.50;10.20;;;19.20;99.90;;;;;;5075466;28;20302;-77
2022/08/25 06:19:08;;;;;;;10.50;10.20;;;19.30;99.90;;;;;;5079563;28;20294;-79
2022/08/25 06:21:37;;;;;;;10.52;10.23;;;19.40;99.90;;;;;;5079334;28;20252;-76
2022/08/25 06:24:06;;;;;;;10.60;10.30;;;19.50;99.90;;;;;;5078993;28;20290;-77
2022/08/25 06:26:34;;;;;;;10.60;10.30;;;19.70;99.90;;;;;;5089845;28;20293;-78
2022/08/25 06:29:03;;;;;;;10.57;10.27;;;19.80;99.90;;;;;;5095983;28;20293;-78
2022/08/25 06:31:33;;;;;;;10.57;10.27;;;19.90;99.90;;;;;;5097493;28;20252;-77
2022/08/25 06:34:01;;;;;;;10.70;10.40;;;20.00;99.90;;;;;;5089359;28;20325;-77
2022/08/25 06:36:29;;;;;;;10.80;10.50;;;20.20;99.90;;;;;;5086905;28;20233;-78
2022/08/25 06:38:58;;;;;;;10.77;10.48;;;20.30;99.90;;;;;;5082969;28;20242;-76
2022/08/25 06:41:26;;;;;;;10.88;10.57;;;20.50;99.90;;;;;;5082707;28;20250;-78
2022/08/25 06:43:53;;;;;;;10.50;10.20;;;20.60;99.90;;;;;;5082995;28;20238;-79
2022/08/25 06:46:26;;;;;;;10.60;10.30;;;20.70;99.90;;;;;;5082690;28;20289;-77
2022/08/25 06:48:55;;;;;;;10.70;10.40;;;20.80;99.90;;;;;;5083280;28;20234;-79
2022/08/25 06:51:25;;;;;;;10.90;10.60;;;20.90;99.90;;;;;;5082990;28;20340;-78
2022/08/25 06:53:53;;;;;;;10.75;10.45;;;21.00;99.90;;;;;;5082682;28;20290;-79
2022/08/25 06:56:23;;;;;;;10.80;10.50;;;21.10;99.90;;;;;;5084393;28;20305;-78
2022/08/25 06:58:51;;;;;;;10.45;10.15;;;21.20;99.90;;;;;;5084435;28;20324;-79
2022/08/25 07:01:22;;;;;;;10.50;10.20;;;21.20;99.90;;;;;;5083159;28;20230;-78
2022/08/25 07:03:50;;;;;;;10.40;10.10;;;21.30;99.90;;;;;;5082489;28;20234;-78
2022/08/25 07:06:19;;;;;;;10.32;10.02;;;21.30;99.90;;;;;;5083067;28;20262;-76
2022/08/25 07:08:48;;;;;;;10.25;9.95;;;21.40;99.90;;;;;;5081430;28;20234;-81
2022/08/25 07:11:18;;;;;;;10.30;10.00;;;21.40;99.90;;;;;;5080632;28;20294;-77
2022/08/25 07:13:47;;;;;;;10.30;10.00;;;21.50;99.90;;;;;;5069909;28;20274;-78
2022/08/25 07:16:16;;;;;;;10.50;10.20;;;21.50;99.90;;;;;;5083873;28;20297;-78
2022/08/25 07:18:44;;;;;;;10.50;10.20;;;21.60;99.90;;;;;;5082496;28;20237;-78
2022/08/25 07:21:12;;;;;;;10.15;9.85;;;21.60;99.90;;;;;;5081779;28;20329;-77
2022/08/25 07:23:40;;;;;;;10.60;10.30;;;21.60;99.90;;;;;;5081114;28;20230;-77
2022/08/25 07:26:11;;;;;;;10.77;10.48;;;21.50;99.90;;;;;;5080908;28;20226;-77
2022/08/25 07:28:39;;;;;;;10.20;9.90;;;21.50;99.90;;;;;;5082284;28;20256;-77
2022/08/25 07:31:08;;;;;;;10.60;10.30;;;21.60;99.90;;;;;;5081539;28;20290;-78
2022/08/25 07:33:36;;;;;;;10.90;10.60;;;21.70;99.90;;;;;;5081295;28;20218;-78
2022/08/25 07:36:03;;;;;;;10.60;10.30;;;21.70;99.90;;;;;;5081879;28;20234;-77
2022/08/25 07:38:31;;;;;;;11.20;10.80;;;21.70;99.90;;;;;;5073901;28;20237;-77
2022/08/25 07:41:03;;;;;;;10.50;10.20;;;21.90;99.90;;;;;;5082288;28;20245;-77
2022/08/25 07:43:30;;;;;;;10.60;10.30;;;22.20;99.90;;;;;;5080796;28;20238;-78
2022/08/25 07:45:57;;;;;;;10.80;10.50;;;22.40;99.90;;;;;;5081241;28;20313;-78
2022/08/25 07:48:26;;;;;;;10.50;10.20;;;22.50;99.90;;;;;;5082793;28;20226;-77
2022/08/25 07:50:54;;;;;;;10.40;10.10;;;22.50;99.90;;;;;;5082210;28;20222;-78
2022/08/25 07:53:21;;;;;;;10.50;10.20;;;22.50;99.90;;;;;;5074778;28;20210;-78
2022/08/25 07:55:49;;;;;;;10.50;10.20;;;22.70;99.90;;;;;;5079888;28;20312;-77
2022/08/25 07:58:17;;;;;;;10.60;10.30;;;22.90;99.90;;;;;;5083594;28;20241;-77
2022/08/25 08:00:48;;;;;;;10.38;10.07;;;23.00;99.90;;;;;;5084257;28;20299;-78
2022/08/25 08:03:16;;;;;;;10.40;10.10;;;23.10;99.90;;;;;;5083232;28;20266;-78
2022/08/25 08:05:45;;;;;;;10.32;10.02;;;23.30;99.90;;;;;;5082966;28;20328;-78
2022/08/25 08:08:13;;;;;;;10.50;10.20;;;23.50;99.90;;;;;;5077065;28;20238;-78
2022/08/25 08:10:42;;;;;;;10.52;10.23;;;23.50;99.90;;;;;;5081421;28;20230;-81
2022/08/25 08:13:10;;;;;;;10.60;10.30;;;23.70;99.90;;;;;;5081724;28;20236;-78
2022/08/25 08:15:42;;;;;;;10.40;10.10;;;23.80;99.90;;;;;;5080468;28;20230;-78
2022/08/25 08:18:09;;;;;;;10.30;10.00;;;23.80;99.90;;;;;;5082334;28;20218;-77
2022/08/25 08:20:37;;;;;;;10.63;10.32;;;23.90;99.90;;;;;;5081638;28;20276;-78
2022/08/25 08:23:06;;;;;;;10.57;10.27;;;24.00;99.90;;;;;;5081846;28;20238;-78
2022/08/25 08:25:33;;;;;;;10.60;10.30;;;24.10;99.90;;;;;;5082805;28;20320;-79
2022/08/25 08:28:01;;;;;;;10.60;10.30;;;24.40;99.90;;;;;;5086628;28;20328;-78
2022/08/25 08:30:29;;;;;;;10.73;10.43;;;24.60;99.90;;;;;;5084114;28;20258;-78
2022/08/25 08:32:56;;;;;;;10.75;10.45;;;24.70;99.90;;;;;;5083882;28;20218;-78
2022/08/25 08:35:24;;;;;;;10.80;10.50;;;24.90;99.90;;;;;;5076139;28;20226;-78
2022/08/25 08:37:52;;;;;;;10.80;10.50;;;24.90;99.90;;;;;;5089235;28;20233;-77
2022/08/25 08:40:21;;;;;;;10.82;10.52;;;24.90;99.90;;;;;;5089860;28;20306;-78
2022/08/25 08:43:02;;;;;;;11.25;10.93;;;25.00;99.90;;;;;;5085756;28;20325;-77
2022/08/25 08:45:34;;;;;;;11.32;10.93;;;25.30;99.90;;;;;;5080616;28;20228;-77
2022/08/25 08:48:41;;;;;;;10.82;10.52;;;25.60;99.90;;;;;;5078439;28;20239;-78
2022/08/25 08:51:20;;;;;;;11.18;10.88;;;25.80;99.90;;;;;;5087511;28;20360;-77
2022/08/25 08:53:56;;;;;;;11.10;10.80;;;25.50;99.90;;;;;;5079321;28;20266;-76
2022/08/25 08:56:30;;;;;;;11.10;10.80;;;25.70;99.90;;;;;;5078847;28;20309;-76
2022/08/25 08:59:01;;;;;;;11.10;10.80;;;26.00;99.90;;;;;;5078645;28;20238;-75
2022/08/25 09:01:34;;;;;;;11.50;11.10;;;26.50;99.90;;;;;;5078388;28;20240;-77
2022/08/25 09:04:11;;;;;;;11.07;10.77;;;26.80;99.90;;;;;;5078981;28;20293;-75
2022/08/25 09:06:44;;;;;;;11.40;11.02;;;27.20;99.90;;;;;;5079859;28;20221;-76
2022/08/25 09:09:15;;;;;;;11.10;10.80;;;27.50;99.90;;;;;;5088673;28;20278;-78
2022/08/25 09:11:57;;;;;;;11.30;10.98;;;27.60;99.90;;;;;;5083692;28;20244;-78
2022/08/25 09:14:51;;;;;;;11.23;10.93;;;27.80;99.90;;;;;;5080300;28;20252;-79
2022/08/25 09:17:36;;;;;;;11.68;11.27;;;28.00;99.90;;;;;;5079751;28;20230;-79
2022/08/25 09:20:33;;;;;;;11.38;11.07;;;28.40;99.90;;;;;;5080588;28;20353;-78
2022/08/25 09:23:24;;;;;;;11.73;11.32;;;28.40;99.90;;;;;;5082035;28;20317;-78
2022/08/25 09:25:57;;;;;;;11.60;11.20;;;28.40;99.90;;;;;;5079470;28;20226;-77
2022/08/25 09:28:35;;;;;;;11.80;11.40;;;28.30;99.90;;;;;;5075748;28;20246;-77
2022/08/25 09:31:10;;;;;;;11.70;11.30;;;28.20;99.90;;;;;;5080640;28;20233;-78
2022/08/25 09:33:37;;;;;;;11.80;11.40;;;28.40;99.90;;;;;;5081172;28;20261;-78
2022/08/25 09:36:06;;;;;;;11.65;11.25;;;28.60;99.90;;;;;;5079127;28;20316;-78
2022/08/25 09:38:33;;;;;;;11.27;10.98;;;28.90;99.90;;;;;;5079354;28;20328;-77
2022/08/25 09:41:02;;;;;;;11.55;11.18;;;29.10;99.90;;;;;;5078958;28;20325;-77
2022/08/25 09:43:37;;;;;;;11.60;11.20;;;29.30;99.90;;;;;;5077778;28;20222;-78
2022/08/25 09:46:13;;;;;;;11.70;11.30;;;29.40;99.90;;;;;;5091985;28;20246;-81
2022/08/25 09:48:46;;;;;;;11.45;11.15;;;29.40;99.90;;;;;;5092383;28;20245;-80
2022/08/25 09:51:21;;;;;;;11.80;11.40;;;29.60;99.90;;;;;;5085295;28;20233;-78
2022/08/25 09:53:55;;;;;;;11.80;11.40;;;29.50;99.90;;;;;;5087211;28;20233;-77
2022/08/25 09:56:26;;;;;;;11.40;11.10;;;29.60;99.90;;;;;;5087870;28;20233;-78
2022/08/25 09:58:59;;;;;;;11.38;11.07;;;29.70;99.90;;;;;;5098320;28;20241;-78
2022/08/25 10:01:27;;;;;;;11.38;11.07;;;29.50;99.90;;;;;;5100520;28;20287;-78
2022/08/25 10:04:04;;;;;;;11.30;11.00;;;29.40;99.90;;;;;;5098915;28;20250;-78
2022/08/25 10:06:46;;;;;;;11.10;10.80;;;29.50;99.90;;;;;;5092347;28;20228;-76
2022/08/25 10:09:28;;;;;;;11.20;10.90;;;29.50;99.90;;;;;;5098904;28;20265;-78
2022/08/25 10:11:59;;;;;;;11.35;11.05;;;29.10;99.90;;;;;;5104577;28;20586;-78
2022/08/25 10:14:35;;;;;;;11.20;10.90;;;28.90;99.90;;;;;;5104513;28;20210;-77
2022/08/25 10:17:23;;;;;;;11.23;10.93;;;28.70;99.90;;;;;;5101698;28;20222;-78
2022/08/25 10:19:51;;;;;;;11.48;11.13;;;28.80;99.90;;;;;;5102479;28;20323;-77
2022/08/25 10:22:31;;;;;;;11.00;10.70;;;28.70;99.90;;;;;;5101950;28;20237;-78
2022/08/25 10:24:58;;;;;;;10.85;10.55;;;28.70;99.90;;;;;;5100384;28;20226;-78
2022/08/25 10:27:35;;;;;;;10.77;10.48;;;28.90;99.90;;;;;;5100506;28;20226;-80
2022/08/25 10:30:18;;;;;;;10.77;10.48;;;29.00;99.90;;;;;;5099516;28;20249;-80
2022/08/25 10:33:05;;;;;;;10.80;10.50;;;28.70;99.90;;;;;;5100175;28;20237;-80
2022/08/25 10:35:49;;;;;;;10.70;10.40;;;28.60;99.90;;;;;;5089986;28;20229;-80
2022/08/25 10:38:37;;;;;;;10.90;10.60;;;28.60;99.90;;;;;;5089807;28;20254;-80
2022/08/25 10:41:32;;;;;;;10.65;10.35;;;28.50;99.90;;;;;;5088298;28;20253;-80
2022/08/25 10:47:24;;;;;;;11.00;10.70;;;28.80;99.90;;;;;;5083091;28;20222;-79
2022/08/25 10:49:55;;;;;;;10.80;10.50;;;28.60;99.90;;;;;;5084049;28;20309;-78
2022/08/25 10:52:35;;;;;;;10.90;10.60;;;28.80;99.90;;;;;;5083477;28;20296;-79
2022/08/25 10:55:16;;;;;;;11.15;10.85;;;28.70;99.90;;;;;;5082114;28;20252;-79
2022/08/25 10:57:55;;;;;;;11.10;10.80;;;28.90;99.90;;;;;;5083042;28;20244;-79
2022/08/25 11:00:25;;;;;;;11.05;10.75;;;28.80;99.90;;;;;;5082116;28;20248;-78
2022/08/25 11:03:21;;;;;;;11.18;10.88;;;28.90;99.90;;;;;;5082379;28;20292;-78
2022/08/25 11:05:54;;;;;;;11.00;10.70;;;28.90;99.90;;;;;;5081096;28;20297;-78
2022/08/25 11:08:33;;;;;;;10.90;10.60;;;28.80;99.90;;;;;;5081895;28;20238;-78
2022/08/25 11:11:48;;;;;;;10.80;10.50;;;28.80;99.90;;;;;;5184482;22;20220;-89
2022/08/25 11:20:45;;;;;;;10.52;10.23;;;28.40;99.90;;;;;;5142308;27;20213;-90
2022/08/25 11:23:51;;;;;;;;;;;;;;;;;;;;;
2022/08/25 11:30:07;;;;;;;11.02;10.73;;;28.80;99.90;;;;;;5120599;27;20213;-90
2022/08/25 11:33:00;;;;;;;11.00;10.70;;;29.00;99.90;;;;;;5116140;27;20234;-90
2022/08/25 11:42:51;;;;;;;11.10;10.80;;;29.90;99.90;;;;;;5099778;28;20415;-89
2022/08/25 11:46:09;;;;;;;;;;;;;;;;;;;;;
2022/08/25 11:49:15;;;;;;;11.25;10.95;;;30.10;99.90;;;;;;5101667;28;20780;-89
2022/08/25 11:56:01;;;;;;;10.57;10.27;;;29.90;99.90;;;;;;5099546;28;20241;-88
2022/08/25 12:02:23;;;;;;;10.30;10.00;;;29.80;99.90;;;;;;5101522;28;20256;-88
2022/08/25 12:05:08;;;;;;;10.57;10.27;;;29.50;99.90;;;;;;5074820;28;20232;-88
2022/08/25 12:17:48;;;;;;;11.35;11.05;;;28.40;99.90;;;;;;5099021;28;20284;-90
2022/08/25 12:21:19;;;;;;;11.15;10.85;;;28.40;99.90;;;;;;5099794;28;20233;-90
2022/08/25 12:24:36;;;;;;;11.27;10.98;;;28.40;99.90;;;;;;5099400;28;20240;-89
2022/08/25 12:27:58;;;;;;;11.20;10.90;;;28.50;99.90;;;;;;5097766;28;20228;-90
2022/08/25 12:31:03;;;;;;;11.63;11.23;;;28.40;99.90;;;;;;5099526;28;20232;-89
2022/08/25 12:41:30;;;;;;;11.40;11.10;;;29.70;99.90;;;;;;5099109;28;20233;-89
2022/08/25 12:48:06;;;;;;;11.45;11.13;;;30.50;99.90;;;;;;5097433;28;20225;-89
2022/08/25 12:53:57;;;;;;;11.30;11.00;;;31.30;99.90;;;;;;5097625;28;20229;-89
2022/08/25 12:56:46;;;;;;;11.75;11.35;;;31.30;99.90;;;;;;5098445;28;20229;-89
2022/08/25 12:59:24;;;;;;;11.70;11.30;;;31.20;99.90;;;;;;5099196;28;20234;-90
2022/08/25 13:02:58;;;;;;;11.80;11.40;;;31.20;99.90;;;;;;5113765;27;20225;-91
2022/08/25 13:06:31;;;;;;;11.85;11.45;;;31.60;99.90;;;;;;5119460;27;20233;-91
2022/08/25 13:10:03;;;;;;;11.85;11.45;;;31.60;99.90;;;;;;5023113;28;20239;-89
2022/08/25 13:25:35;;;;;;;11.93;11.52;;;32.90;99.90;;;;;;5083212;28;20246;-89
2022/08/25 13:29:09;;;;;;;11.70;11.30;;;33.50;99.90;;;;;;5098278;28;20217;-89
2022/08/25 13:32:04;;;;;;;11.90;11.50;;;34.00;99.90;;;;;;5110377;28;20281;-89
2022/08/25 13:34:53;;;;;;;11.48;11.18;;;34.70;99.90;;;;;;5117128;28;20257;-90
2022/08/25 13:37:28;;;;;;;11.30;11.00;;;35.10;99.90;;;;;;5106062;28;20296;-89
2022/08/25 13:43:18;;;;;;;11.32;11.02;;;34.90;99.90;;;;;;5095776;28;20214;-90
2022/08/25 13:46:24;;;;;;;;;;;;;;;;;;;;;
2022/08/25 13:49:19;;;;;;;11.40;11.10;;;33.90;99.90;;;;;;5099653;28;20221;-89
2022/08/25 13:52:09;;;;;;;10.60;10.30;;;33.90;99.90;;;;;;5097220;28;20249;-89
2022/08/25 13:54:49;;;;;;;10.70;10.40;;;34.10;99.90;;;;;;5097902;28;20209;-90
2022/08/25 13:57:47;;;;;;;10.70;10.40;;;34.50;99.90;;;;;;5098227;28;20229;-90
2022/08/25 14:00:38;;;;;;;10.68;10.38;;;35.00;99.90;;;;;;5101696;28;20226;-89
2022/08/25 14:03:37;;;;;;;10.80;10.50;;;34.70;99.90;;;;;;5098334;28;20226;-89
2022/08/25 14:06:27;;;;;;;10.77;10.48;;;34.30;99.90;;;;;;5097877;28;20233;-89
2022/08/25 14:09:15;;;;;;;11.50;11.18;;;33.80;99.90;;;;;;5097844;28;20310;-89
2022/08/25 14:12:03;;;;;;;11.75;11.38;;;33.40;99.90;;;;;;5097228;28;20339;-89
2022/08/25 14:14:40;;;;;;;11.10;10.80;;;33.20;99.90;;;;;;5098174;28;20225;-90
2022/08/25 14:33:53;;;;;;;10.85;10.55;;;33.20;99.90;;;;;;5672025;22;16167868;-89
2022/08/25 14:45:29;;;;;;;11.48;11.18;;;34.80;99.90;;;;;;6294211;22;20205;-89
2022/08/25 14:48:17;;;;;;;11.15;10.85;;;35.40;99.90;;;;;;6295254;22;20229;-89
2022/08/25 14:51:37;;;;;;;11.30;11.00;;;35.90;99.90;;;;;;6289432;22;20201;-90
2022/08/25 14:54:48;;;;;;;10.98;10.68;;;35.80;99.90;;;;;;6264822;22;20248;-89
2022/08/25 15:01:04;;;;;;;11.50;11.20;;;34.90;99.90;;;;;;6264893;22;20209;-89
2022/08/25 15:04:18;;;;;;;11.45;11.15;;;35.00;99.90;;;;;;6269434;22;20208;-89
2022/08/25 15:14:01;;;;;;;10.90;10.60;;;35.70;99.90;;;;;;6237866;22;20198;-88
2022/08/25 15:19:55;;;;;;;10.80;10.50;;;36.30;99.90;;;;;;6262728;22;20198;-89
2022/08/25 15:22:33;;;;;;;10.93;10.63;;;36.30;99.90;;;;;;6265059;22;20300;-89
2022/08/25 15:25:20;;;;;;;10.98;10.68;;;36.20;99.90;;;;;;6264428;22;20202;-88
2022/08/25 15:31:29;;;;;;;11.35;11.05;;;36.30;99.90;;;;;;6231268;22;20198;-89
2022/08/25 15:34:31;;;;;;;10.70;10.40;;;36.40;99.90;;;;;;6229992;22;20198;-89
2022/08/25 15:43:39;;;;;;;10.55;10.25;;;36.00;99.90;;;;;;6219972;23;20202;-89
2022/08/25 15:46:45;;;;;;;11.30;11.00;;;35.70;99.90;;;;;;6226062;22;20198;-89
2022/08/25 15:52:28;;;;;;;11.38;11.07;;;36.20;99.90;;;;;;6249055;22;20201;-90
2022/08/25 15:55:13;;;;;;;11.10;10.80;;;36.20;99.90;;;;;;6250457;22;20199;-90
2022/08/25 15:58:11;;;;;;;11.20;10.90;;;35.40;99.90;;;;;;6250610;22;20197;-92
2022/08/25 16:01:04;;;;;;;11.23;10.93;;;35.20;99.90;;;;;;6250932;22;20187;-90
2022/08/25 16:06:49;;;;;;;;;;;;;;;;;;;;;
2022/08/25 16:09:43;;;;;;;11.10;10.80;;;34.70;99.90;;;;;;6232013;23;20281;-89
2022/08/25 16:12:30;;;;;;;11.23;10.93;;;34.40;99.90;;;;;;6226465;22;20211;-89
2022/08/25 16:23:48;;;;;;;11.60;11.30;;;33.30;99.90;;;;;;6224363;23;20261;-89
2022/08/25 16:26:35;;;;;;;11.68;11.38;;;32.90;99.90;;;;;;6225965;23;20195;-89
2022/08/25 16:29:13;;;;;;;11.60;11.27;;;32.60;99.90;;;;;;6226371;23;20258;-89
2022/08/25 16:35:17;;;;;;;11.55;11.23;;;31.50;99.90;;;;;;6214679;23;20285;-89
2022/08/25 16:41:06;;;;;;;11.20;10.90;;;31.00;99.90;;;;;;6224606;22;20202;-89
2022/08/25 16:43:42;;;;;;;11.18;10.88;;;30.90;99.90;;;;;;6226301;23;20265;-89
2022/08/25 16:46:38;;;;;;;11.18;10.88;;;30.80;99.90;;;;;;6226023;23;20245;-89
2022/08/25 16:49:18;;;;;;;11.13;10.82;;;30.60;99.90;;;;;;6247521;22;20205;-90
2022/08/25 16:52:01;;;;;;;11.00;10.70;;;30.50;99.90;;;;;;6249786;22;20214;-90
2022/08/25 17:03:47;;;;;;;10.88;10.57;;;30.30;99.90;;;;;;6228064;23;20222;-89
2022/08/25 17:06:36;;;;;;;10.60;10.30;;;30.40;99.90;;;;;;6226032;23;20195;-89
2022/08/25 17:09:48;;;;;;;11.13;10.82;;;30.60;99.90;;;;;;6227543;23;20203;-89
2022/08/25 17:12:16;;;;;;;10.85;10.55;;;30.90;99.90;;;;;;6240917;22;20202;-81
2022/08/25 17:14:46;;;;;;;11.00;10.70;;;30.90;99.90;;;;;;6260323;22;20197;-80
2022/08/25 17:17:15;;;;;;;10.93;10.63;;;30.90;99.90;;;;;;6260742;22;20221;-81
2022/08/25 17:19:54;;;;;;;10.75;10.45;;;30.90;99.90;;;;;;6263846;22;20198;-80
2022/08/25 17:22:23;;;;;;;10.80;10.50;;;30.70;99.90;;;;;;6245102;22;20202;-82
2022/08/25 17:24:53;;;;;;;11.27;10.98;;;30.60;99.90;;;;;;6232088;22;20221;-82
2022/08/25 17:27:22;;;;;;;11.10;10.80;;;30.50;99.90;;;;;;6237805;22;20211;-81
2022/08/25 17:29:51;;;;;;;11.20;10.90;;;30.30;99.90;;;;;;6247874;22;20182;-81
2022/08/25 17:32:21;;;;;;;10.98;10.68;;;30.20;99.90;;;;;;6247400;22;20206;-80
2022/08/25 17:34:59;;;;;;;11.05;10.75;;;30.10;99.90;;;;;;6240558;22;20195;-81
2022/08/25 17:37:29;;;;;;;10.93;10.63;;;30.00;99.90;;;;;;6234333;22;20194;-81
2022/08/25 17:39:59;;;;;;;11.07;10.77;;;29.80;99.90;;;;;;6233865;22;20195;-80
2022/08/25 17:42:27;;;;;;;11.00;10.70;;;29.70;99.90;;;;;;6232880;22;20214;-80
2022/08/25 17:44:57;;;;;;;10.70;10.40;;;29.70;99.90;;;;;;6235567;22;20238;-81
2022/08/25 17:47:27;;;;;;;10.70;10.40;;;29.70;99.90;;;;;;6234383;22;20246;-80
2022/08/25 17:50:04;;;;;;;10.57;10.27;;;29.70;99.90;;;;;;6236184;22;20195;-80
2022/08/25 17:52:34;;;;;;;10.85;10.55;;;29.60;99.90;;;;;;6234277;22;20218;-81
2022/08/25 17:55:04;;;;;;;10.65;10.35;;;29.60;99.90;;;;;;6234827;22;20203;-80
2022/08/25 17:57:33;;;;;;;10.80;10.50;;;29.50;99.90;;;;;;6232948;22;20258;-81
2022/08/25 18:00:05;;;;;;;10.40;10.10;;;29.40;99.90;;;;;;6231792;23;20210;-82
2022/08/25 18:02:33;;;;;;;10.38;10.07;;;29.30;99.90;;;;;;6232359;22;20293;-81
2022/08/25 18:05:12;;;;;;;10.15;9.85;;;29.20;99.90;;;;;;6230519;22;20191;-80
2022/08/25 18:07:41;;;;;;;10.48;10.18;;;29.10;99.90;;;;;;6230943;22;20183;-82
2022/08/25 18:10:11;;;;;;;10.52;10.23;;;29.00;99.90;;;;;;6231740;22;20199;-82
2022/08/25 18:12:39;;;;;;;9.93;9.63;;;28.90;99.90;;;;;;6232003;22;20692;-81
2022/08/25 18:15:09;;;;;;;10.20;9.90;;;28.80;99.90;;;;;;6230559;23;20199;-81
2022/08/25 18:17:37;;;;;;;10.27;9.98;;;28.70;99.90;;;;;;6231442;23;20218;-81
2022/08/25 18:20:16;;;;;;;10.70;10.40;;;28.60;99.90;;;;;;6232347;23;20203;-81
2022/08/25 18:22:45;;;;;;;10.55;10.25;;;28.50;99.90;;;;;;6232581;22;20202;-82
2022/08/25 18:25:15;;;;;;;10.68;10.38;;;28.40;99.90;;;;;;6233066;23;20192;-80
2022/08/25 18:27:44;;;;;;;10.40;10.10;;;28.30;99.90;;;;;;6231406;23;20194;-82
2022/08/25 18:30:13;;;;;;;10.18;9.88;;;28.20;99.90;;;;;;6230927;23;20234;-81
2022/08/25 18:32:42;;;;;;;10.00;9.70;;;28.10;99.90;;;;;;6231195;22;20203;-81
2022/08/25 18:35:27;;;;;;;8.90;8.70;;;28.00;99.90;;;;;;6231376;23;20672;-81
2022/08/25 18:40:47;;;;;;;8.82;8.63;;;27.90;99.90;;;;;;6231514;23;20183;-81
2022/08/25 18:43:18;;;;;;;8.90;8.70;;;27.80;99.90;;;;;;6231492;22;20257;-81
2022/08/25 18:45:47;;;;;;;8.90;8.70;;;27.70;99.90;;;;;;6230659;23;20191;-82
2022/08/25 18:48:16;;;;;;;8.90;8.70;;;27.60;99.90;;;;;;6230247;23;20209;-82
2022/08/25 18:50:49;;;;;;;8.82;8.63;;;27.50;99.90;;;;;;6231390;23;20187;-80
2022/08/25 18:53:17;;;;;;;9.20;9.00;;;27.40;99.90;;;;;;6231209;22;20214;-82
2022/08/25 18:55:45;;;;;;;9.00;8.80;;;27.40;99.90;;;;;;6231754;23;20215;-81
2022/08/25 18:58:18;;;;;;;9.18;8.95;;;27.30;99.90;;;;;;6231176;23;20203;-81
2022/08/25 19:00:46;;;;;;;9.50;9.20;;;27.20;99.90;;;;;;6232141;23;20199;-81
2022/08/25 19:03:21;;;;;;;9.77;9.48;;;27.20;99.90;;;;;;6230821;22;20211;-80
2022/08/25 19:06:01;;;;;;;9.68;9.38;;;27.10;99.90;;;;;;6237575;23;20195;-81
2022/08/25 19:08:29;;;;;;;9.70;9.40;;;27.10;99.90;;;;;;6239967;23;20199;-80
2022/08/25 19:10:59;;;;;;;9.70;9.40;;;27.00;99.90;;;;;;6243262;23;20195;-81
2022/08/25 19:13:28;;;;;;;9.60;9.30;;;26.90;99.90;;;;;;6243947;22;20223;-81
2022/08/25 19:15:59;;;;;;;9.77;9.48;;;26.80;99.90;;;;;;6239835;23;20226;-81
2022/08/25 19:18:28;;;;;;;9.80;9.50;;;26.80;99.90;;;;;;6239189;23;20187;-81
2022/08/25 19:20:59;;;;;;;9.80;9.50;;;26.70;99.90;;;;;;6244718;23;20209;-81
2022/08/25 19:23:27;;;;;;;9.80;9.50;;;26.70;99.90;;;;;;6236721;23;20203;-80
2022/08/25 19:25:55;;;;;;;9.15;8.95;;;26.60;99.90;;;;;;6236854;23;20183;-81
2022/08/25 19:28:26;;;;;;;9.50;9.20;;;26.50;99.90;;;;;;6246887;23;20202;-80
2022/08/25 19:30:54;;;;;;;9.65;9.35;;;26.50;99.90;;;;;;6247568;23;20284;-81
2022/08/25 19:33:24;;;;;;;9.70;9.40;;;26.40;99.90;;;;;;6246300;22;20203;-81
2022/08/25 19:35:53;;;;;;;9.50;9.20;;;26.30;99.90;;;;;;6246012;23;20203;-81
2022/08/25 19:38:36;;;;;;;9.60;9.30;;;26.30;99.90;;;;;;6244670;23;20195;-81
2022/08/25 19:41:12;;;;;;;9.70;9.40;;;26.20;99.90;;;;;;6247755;22;20183;-81
2022/08/25 19:43:48;;;;;;;9.98;9.68;;;26.10;99.90;;;;;;6248885;23;20183;-81
2022/08/25 19:46:18;;;;;;;10.05;9.75;;;26.00;99.90;;;;;;6250205;22;20201;-81
2022/08/25 19:48:46;;;;;;;9.90;9.60;;;25.90;99.90;;;;;;6249601;22;20225;-81
2022/08/25 19:51:16;;;;;;;10.00;9.70;;;25.80;99.90;;;;;;6244319;22;20203;-81
2022/08/25 19:53:53;;;;;;;10.05;9.75;;;25.80;99.90;;;;;;6240931;23;20231;-81
2022/08/25 19:56:27;;;;;;;10.00;9.70;;;25.70;99.90;;;;;;6238683;23;20277;-81
2022/08/25 19:58:54;;;;;;;9.95;9.65;;;25.60;99.90;;;;;;6237690;23;20226;-81
2022/08/25 20:01:23;;;;;;;9.90;9.60;;;25.50;99.90;;;;;;6235813;22;20234;-81
2022/08/25 20:03:52;;;;;;;10.07;9.77;;;25.40;99.90;;;;;;6234922;23;20195;-81
2022/08/25 20:06:21;;;;;;;10.15;9.85;;;25.30;99.90;;;;;;6230493;23;20285;-81
2022/08/25 20:09:01;;;;;;;10.20;9.90;;;25.30;99.90;;;;;;6230982;23;20195;-79